createdAt,value
2022-09-23T00:00:20.703Z,90.48
2022-09-23T00:01:20.727Z,90.48
2022-09-23T00:02:20.686Z,90.48
2022-09-23T00:03:20.652Z,90.48
2022-09-23T00:04:20.639Z,90.69
2022-09-23T00:05:20.638Z,91.00
2022-09-23T00:06:20.629Z,91.10
2022-09-23T00:07:20.630Z,91.00
2022-09-23T00:08:20.589Z,91.00
2022-09-23T00:09:20.577Z,91.10
2022-09-23T00:10:20.583Z,91.31
2022-09-23T00:11:20.551Z,91.31
2022-09-23T00:12:20.535Z,91.00
2022-09-23T00:13:21.486Z,90.89
2022-09-23T00:14:20.510Z,90.89
2022-09-23T00:15:20.506Z,91.20
2022-09-23T00:16:20.537Z,91.61
2022-09-23T00:17:20.478Z,91.41
2022-09-23T00:18:20.457Z,91.41
2022-09-23T00:19:20.444Z,91.61
2022-09-23T00:20:20.435Z,91.72
2022-09-23T00:21:20.423Z,91.82
2022-09-23T00:22:20.408Z,91.72
2022-09-23T00:23:20.388Z,91.72
2022-09-23T00:24:20.395Z,91.51
2022-09-23T00:25:20.365Z,91.55
2022-09-23T00:26:20.457Z,91.76
2022-09-23T00:27:20.335Z,91.66
2022-09-23T00:28:20.315Z,91.97
2022-09-23T00:29:20.317Z,92.27
2022-09-23T00:30:20.298Z,92.27
2022-09-23T00:31:20.438Z,92.27
2022-09-23T00:32:20.280Z,92.27
2022-09-23T00:33:20.263Z,92.48
2022-09-23T00:34:20.257Z,92.48
2022-09-23T00:35:20.250Z,92.48
2022-09-23T00:36:20.222Z,92.48
2022-09-23T00:37:20.204Z,92.58
2022-09-23T00:38:20.191Z,92.58
2022-09-23T00:39:20.182Z,92.58
2022-09-23T00:40:20.216Z,92.58
2022-09-23T00:41:20.161Z,92.79
2022-09-23T00:42:20.139Z,92.79
2022-09-23T00:43:20.131Z,92.58
2022-09-23T00:44:20.133Z,92.63
2022-09-23T00:45:20.112Z,92.79
2022-09-23T00:46:20.182Z,92.79
2022-09-23T00:47:20.079Z,92.63
2022-09-23T00:48:20.062Z,92.69
2022-09-23T00:49:20.050Z,92.73
2022-09-23T00:50:20.040Z,92.73
2022-09-23T00:51:20.049Z,93.04
2022-09-23T00:52:20.014Z,93.14
2022-09-23T00:53:20.007Z,93.14
2022-09-23T00:54:20.026Z,93.24
2022-09-23T00:55:19.968Z,93.14
2022-09-23T00:56:19.958Z,92.93
2022-09-23T00:57:19.962Z,93.04
2022-09-23T00:58:19.968Z,93.14
2022-09-23T00:59:19.989Z,93.24
2022-09-23T01:00:19.986Z,93.14
2022-09-23T01:01:20.062Z,93.04
2022-09-23T01:02:20.030Z,93.24
2022-09-23T01:03:19.866Z,93.24
2022-09-23T01:04:19.868Z,93.24
2022-09-23T01:05:19.840Z,93.44
2022-09-23T01:06:19.829Z,93.44
2022-09-23T01:07:19.873Z,93.24
2022-09-23T01:08:19.802Z,93.14
2022-09-23T01:09:19.789Z,93.14
2022-09-23T01:10:19.764Z,93.24
2022-09-23T01:11:19.765Z,93.35
2022-09-23T01:12:19.752Z,93.44
2022-09-23T01:13:20.619Z,93.44
2022-09-23T01:14:19.735Z,93.44
2022-09-23T01:15:19.714Z,93.55
2022-09-23T01:16:19.776Z,93.35
2022-09-23T01:17:19.701Z,93.35
2022-09-23T01:18:19.673Z,93.24
2022-09-23T01:19:19.672Z,93.35
2022-09-23T01:20:19.649Z,93.35
2022-09-23T01:21:19.642Z,93.44
2022-09-23T01:22:19.636Z,93.35
2022-09-23T01:23:19.610Z,93.35
2022-09-23T01:24:19.591Z,93.24
2022-09-23T01:25:19.582Z,93.44
2022-09-23T01:26:19.591Z,93.44
2022-09-23T01:27:19.560Z,93.55
2022-09-23T01:28:19.541Z,93.55
2022-09-23T01:29:19.538Z,93.55
2022-09-23T01:30:19.511Z,93.65
2022-09-23T01:31:19.589Z,93.59
2022-09-23T01:32:19.498Z,93.70
2022-09-23T01:33:19.469Z,93.80
2022-09-23T01:34:19.480Z,94.01
2022-09-23T01:35:19.448Z,94.11
2022-09-23T01:36:19.438Z,94.11
2022-09-23T01:37:19.429Z,94.01
2022-09-23T01:38:19.423Z,93.80
2022-09-23T01:39:19.405Z,93.90
2022-09-23T01:40:19.422Z,93.70
2022-09-23T01:41:19.388Z,93.70
2022-09-23T01:42:19.357Z,93.59
2022-09-23T01:43:19.346Z,93.59
2022-09-23T01:44:19.344Z,93.80
2022-09-23T01:45:19.328Z,94.01
2022-09-23T01:46:19.317Z,94.21
2022-09-23T01:47:19.295Z,94.31
2022-09-23T01:48:19.875Z,94.11
2022-09-23T01:49:19.278Z,93.90
2022-09-23T01:50:19.263Z,94.01
2022-09-23T01:51:19.258Z,93.90
2022-09-23T01:52:19.244Z,94.01
2022-09-23T01:53:19.223Z,94.11
2022-09-23T01:54:19.216Z,94.11
2022-09-23T01:55:19.209Z,94.21
2022-09-23T01:56:19.223Z,94.11
2022-09-23T01:57:19.194Z,94.42
2022-09-23T01:58:19.165Z,94.21
2022-09-23T01:59:19.168Z,94.21
2022-09-23T02:00:19.138Z,94.11
2022-09-23T02:01:19.200Z,93.90
2022-09-23T02:02:19.170Z,93.90
2022-09-23T02:03:19.118Z,93.80
2022-09-23T02:04:19.095Z,93.80
2022-09-23T02:05:19.149Z,93.70
2022-09-23T02:06:19.072Z,93.59
2022-09-23T02:07:19.056Z,93.49
2022-09-23T02:08:19.071Z,93.80
2022-09-23T02:09:19.050Z,94.11
2022-09-23T02:10:19.116Z,94.31
2022-09-23T02:11:19.029Z,94.21
2022-09-23T02:12:18.990Z,94.21
2022-09-23T02:13:18.980Z,94.21
2022-09-23T02:14:18.972Z,94.21
2022-09-23T02:15:18.960Z,93.70
2022-09-23T02:16:19.018Z,93.74
2022-09-23T02:17:18.935Z,93.74
2022-09-23T02:18:18.947Z,93.95
2022-09-23T02:19:18.914Z,93.95
2022-09-23T02:20:18.891Z,94.15
2022-09-23T02:21:18.896Z,94.05
2022-09-23T02:22:18.859Z,94.05
2022-09-23T02:23:18.857Z,94.15
2022-09-23T02:24:18.859Z,94.26
2022-09-23T02:25:18.827Z,94.15
2022-09-23T02:26:18.817Z,94.05
2022-09-23T02:27:18.797Z,93.84
2022-09-23T02:28:18.794Z,93.79
2022-09-23T02:29:18.769Z,94.09
2022-09-23T02:30:18.766Z,93.95
2022-09-23T02:31:18.769Z,93.79
2022-09-23T02:32:18.735Z,93.99
2022-09-23T02:33:18.727Z,93.95
2022-09-23T02:34:18.804Z,94.36
2022-09-23T02:35:18.697Z,94.26
2022-09-23T02:36:18.696Z,94.26
2022-09-23T02:37:18.712Z,94.26
2022-09-23T02:38:18.665Z,94.36
2022-09-23T02:39:18.658Z,94.36
2022-09-23T02:40:18.685Z,94.26
2022-09-23T02:41:18.696Z,94.30
2022-09-23T02:42:18.617Z,94.30
2022-09-23T02:43:18.605Z,94.40
2022-09-23T02:44:18.601Z,94.51
2022-09-23T02:45:18.583Z,94.60
2022-09-23T02:46:18.630Z,94.40
2022-09-23T02:47:18.555Z,94.40
2022-09-23T02:48:18.537Z,94.20
2022-09-23T02:49:18.533Z,94.30
2022-09-23T02:50:18.513Z,94.20
2022-09-23T02:51:18.525Z,94.20
2022-09-23T02:52:18.492Z,94.09
2022-09-23T02:53:18.490Z,94.30
2022-09-23T02:54:18.484Z,94.40
2022-09-23T02:55:18.471Z,94.30
2022-09-23T02:56:18.457Z,94.09
2022-09-23T02:57:18.420Z,94.20
2022-09-23T02:58:18.419Z,94.30
2022-09-23T02:59:18.398Z,94.60
2022-09-23T03:00:18.390Z,94.81
2022-09-23T03:01:18.437Z,94.60
2022-09-23T03:02:18.417Z,94.51
2022-09-23T03:03:18.352Z,94.60
2022-09-23T03:04:18.361Z,94.40
2022-09-23T03:05:18.331Z,94.20
2022-09-23T03:06:18.329Z,94.51
2022-09-23T03:07:18.310Z,94.60
2022-09-23T03:08:18.437Z,94.71
2022-09-23T03:09:18.286Z,94.81
2022-09-23T03:10:18.275Z,94.40
2022-09-23T03:11:18.269Z,94.40
2022-09-23T03:12:18.263Z,94.51
2022-09-23T03:13:18.274Z,94.51
2022-09-23T03:14:18.305Z,94.60
2022-09-23T03:15:18.241Z,94.60
2022-09-23T03:16:18.248Z,94.71
2022-09-23T03:17:18.192Z,94.71
2022-09-23T03:18:18.181Z,94.71
2022-09-23T03:19:18.162Z,94.71
2022-09-23T03:20:18.145Z,94.71
2022-09-23T03:21:18.134Z,94.81
2022-09-23T03:22:18.126Z,94.71
2022-09-23T03:23:18.103Z,94.71
2022-09-23T03:24:18.101Z,94.71
2022-09-23T03:25:18.090Z,94.51
2022-09-23T03:26:18.066Z,94.76
2022-09-23T03:27:18.061Z,94.85
2022-09-23T03:28:18.051Z,94.76
2022-09-23T03:29:18.032Z,94.65
2022-09-23T03:30:18.044Z,94.85
2022-09-23T03:31:18.073Z,95.27
2022-09-23T03:32:17.990Z,95.37
2022-09-23T03:33:17.980Z,95.27
2022-09-23T03:34:17.978Z,95.27
2022-09-23T03:35:17.963Z,95.17
2022-09-23T03:36:17.932Z,95.06
2022-09-23T03:37:17.941Z,95.06
2022-09-23T03:38:17.921Z,94.76
2022-09-23T03:39:17.907Z,94.76
2022-09-23T03:40:17.942Z,94.76
2022-09-23T03:41:17.890Z,94.76
2022-09-23T03:42:17.868Z,94.96
2022-09-23T03:43:17.860Z,94.85
2022-09-23T03:44:17.849Z,95.06
2022-09-23T03:45:17.848Z,95.27
2022-09-23T03:46:17.875Z,95.06
2022-09-23T03:47:17.807Z,94.96
2022-09-23T03:48:17.815Z,94.96
2022-09-23T03:49:17.781Z,95.17
2022-09-23T03:50:17.807Z,95.06
2022-09-23T03:51:17.756Z,94.96
2022-09-23T03:52:17.748Z,94.96
2022-09-23T03:53:17.730Z,95.06
2022-09-23T03:54:17.725Z,95.06
2022-09-23T03:55:17.709Z,95.06
2022-09-23T03:56:17.704Z,95.17
2022-09-23T03:57:17.685Z,95.27
2022-09-23T03:58:17.686Z,95.37
2022-09-23T03:59:17.656Z,95.37
2022-09-23T04:00:17.651Z,95.17
2022-09-23T04:01:17.728Z,95.06
2022-09-23T04:02:17.699Z,95.06
2022-09-23T04:03:17.621Z,95.17
2022-09-23T04:04:17.602Z,95.37
2022-09-23T04:05:17.594Z,95.27
2022-09-23T04:06:17.574Z,95.06
2022-09-23T04:07:17.578Z,95.17
2022-09-23T04:08:17.548Z,94.96
2022-09-23T04:09:17.529Z,94.96
2022-09-23T04:10:17.512Z,95.06
2022-09-23T04:11:17.505Z,94.96
2022-09-23T04:12:17.500Z,95.17
2022-09-23T04:13:17.484Z,94.96
2022-09-23T04:14:17.479Z,94.96
2022-09-23T04:15:17.463Z,94.85
2022-09-23T04:16:17.499Z,95.00
2022-09-23T04:17:17.427Z,95.00
2022-09-23T04:18:17.423Z,95.00
2022-09-23T04:19:17.401Z,94.90
2022-09-23T04:20:17.392Z,95.00
2022-09-23T04:21:17.424Z,95.21
2022-09-23T04:22:17.401Z,95.21
2022-09-23T04:23:17.350Z,95.31
2022-09-23T04:24:17.372Z,95.31
2022-09-23T04:25:17.318Z,95.42
2022-09-23T04:26:17.309Z,95.52
2022-09-23T04:27:17.300Z,95.62
2022-09-23T04:28:17.289Z,95.62
2022-09-23T04:29:17.270Z,95.52
2022-09-23T04:30:17.278Z,95.62
2022-09-23T04:31:17.334Z,95.73
2022-09-23T04:32:17.256Z,95.52
2022-09-23T04:33:17.244Z,95.52
2022-09-23T04:34:17.211Z,95.52
2022-09-23T04:35:17.197Z,95.52
2022-09-23T04:36:17.180Z,95.42
2022-09-23T04:37:17.165Z,95.42
2022-09-23T04:38:17.178Z,95.42
2022-09-23T04:39:17.144Z,95.52
2022-09-23T04:40:17.248Z,95.56
2022-09-23T04:41:17.117Z,95.67
2022-09-23T04:42:17.116Z,95.62
2022-09-23T04:43:17.097Z,95.73
2022-09-23T04:44:17.097Z,95.77
2022-09-23T04:45:17.077Z,95.73
2022-09-23T04:46:17.171Z,95.83
2022-09-23T04:47:17.048Z,95.73
2022-09-23T04:48:17.046Z,95.83
2022-09-23T04:49:17.019Z,95.83
2022-09-23T04:50:17.015Z,95.83
2022-09-23T04:51:17.046Z,95.83
2022-09-23T04:52:16.993Z,95.83
2022-09-23T04:53:16.969Z,95.73
2022-09-23T04:54:16.957Z,95.93
2022-09-23T04:55:16.965Z,95.62
2022-09-23T04:56:16.922Z,95.42
2022-09-23T04:57:17.224Z,95.42
2022-09-23T04:58:16.930Z,95.42
2022-09-23T04:59:16.903Z,95.73
2022-09-23T05:01:12.487Z,95.73
2022-09-23T05:02:12.626Z,95.83
2022-09-23T05:03:12.470Z,95.83
2022-09-23T05:04:12.508Z,96.03
2022-09-23T05:05:12.416Z,95.93
2022-09-23T05:06:12.398Z,96.14
2022-09-23T05:07:12.398Z,96.14
2022-09-23T05:08:12.397Z,96.14
2022-09-23T05:09:12.345Z,96.28
2022-09-23T05:10:12.508Z,96.39
2022-09-23T05:11:12.332Z,96.49
2022-09-23T05:12:12.330Z,96.70
2022-09-23T05:13:12.359Z,96.80
2022-09-23T05:14:12.298Z,96.80
2022-09-23T05:15:12.366Z,96.86
2022-09-23T05:16:12.380Z,96.75
2022-09-23T05:17:12.275Z,96.66
2022-09-23T05:18:12.236Z,96.75
2022-09-23T05:19:12.243Z,96.75
2022-09-23T05:20:12.238Z,96.55
2022-09-23T05:21:12.227Z,96.66
2022-09-23T05:22:12.214Z,96.75
2022-09-23T05:23:12.183Z,96.66
2022-09-23T05:24:12.182Z,96.66
2022-09-23T05:25:12.165Z,96.66
2022-09-23T05:26:12.203Z,96.66
2022-09-23T05:27:12.165Z,96.86
2022-09-23T05:28:12.109Z,97.06
2022-09-23T05:29:12.092Z,96.96
2022-09-23T05:30:12.087Z,96.86
2022-09-23T05:31:14.724Z,96.96
2022-09-23T05:32:13.119Z,96.86
2022-09-23T05:33:12.079Z,96.86
2022-09-23T05:34:12.056Z,96.96
2022-09-23T05:35:12.071Z,96.86
2022-09-23T05:36:12.010Z,96.86
2022-09-23T05:37:12.051Z,96.96
2022-09-23T05:38:12.103Z,96.96
2022-09-23T05:39:12.011Z,96.81
2022-09-23T05:40:12.007Z,96.81
2022-09-23T05:41:11.980Z,96.61
2022-09-23T05:42:11.961Z,96.61
2022-09-23T05:43:12.022Z,96.50
2022-09-23T05:44:11.931Z,96.50
2022-09-23T05:45:12.145Z,96.41
2022-09-23T05:46:11.935Z,96.30
2022-09-23T05:47:11.969Z,96.09
2022-09-23T05:48:11.879Z,96.09
2022-09-23T05:49:11.918Z,96.09
2022-09-23T05:50:12.168Z,95.84
2022-09-23T05:51:11.849Z,95.84
2022-09-23T05:52:11.858Z,95.64
2022-09-23T05:53:11.825Z,95.53
2022-09-23T05:54:11.817Z,95.33
2022-09-23T05:55:11.809Z,95.23
2022-09-23T05:56:11.898Z,95.23
2022-09-23T05:57:11.751Z,95.23
2022-09-23T05:58:11.766Z,95.08
2022-09-23T05:59:11.765Z,94.87
2022-09-23T06:00:11.717Z,94.67
2022-09-23T06:01:11.719Z,94.67
2022-09-23T06:02:11.776Z,94.46
2022-09-23T06:03:11.801Z,94.15
2022-09-23T06:04:11.719Z,94.05
2022-09-23T06:05:11.669Z,94.05
2022-09-23T06:06:11.683Z,94.01
2022-09-23T06:07:11.770Z,93.80
2022-09-23T06:08:11.855Z,93.59
2022-09-23T06:09:11.689Z,93.08
2022-09-23T06:10:11.643Z,92.97
2022-09-23T06:11:11.653Z,92.83
2022-09-23T06:12:11.699Z,93.14
2022-09-23T06:13:11.627Z,92.27
2022-09-23T06:14:11.646Z,91.45
2022-09-23T06:15:12.019Z,91.35
2022-09-23T06:16:11.681Z,91.14
2022-09-23T06:17:11.550Z,90.89
2022-09-23T06:18:11.507Z,90.59
2022-09-23T06:19:12.097Z,90.28
2022-09-23T06:20:11.732Z,89.66
2022-09-23T06:21:11.811Z,89.42
2022-09-23T06:22:11.482Z,88.49
2022-09-23T06:23:11.435Z,88.29
2022-09-23T06:24:15.897Z,88.29
2022-09-23T06:25:12.441Z,87.98
2022-09-23T06:26:11.411Z,87.88
2022-09-23T06:27:11.384Z,87.88
2022-09-23T06:28:11.417Z,88.14
2022-09-23T06:29:11.473Z,87.63
2022-09-23T06:30:12.269Z,87.32
2022-09-23T06:31:13.591Z,87.53
2022-09-23T06:32:11.371Z,87.22
2022-09-23T06:33:11.347Z,87.43
2022-09-23T06:34:13.106Z,87.53
2022-09-23T06:35:23.906Z,87.43
2022-09-23T06:36:12.561Z,87.63
2022-09-23T06:37:19.188Z,87.84
2022-09-23T06:38:12.271Z,87.73
2022-09-23T06:39:11.546Z,87.63
2022-09-23T06:40:11.261Z,87.73
2022-09-23T06:41:11.256Z,88.14
2022-09-23T06:42:11.248Z,88.24
2022-09-23T06:43:11.222Z,88.35
2022-09-23T06:44:11.228Z,88.24
2022-09-23T06:45:11.185Z,87.94
2022-09-23T06:46:11.178Z,87.84
2022-09-23T06:47:11.149Z,88.14
2022-09-23T06:48:11.120Z,87.94
2022-09-23T06:49:11.195Z,87.84
2022-09-23T06:50:11.080Z,87.79
2022-09-23T06:51:11.074Z,88.00
2022-09-23T06:52:11.098Z,88.10
2022-09-23T06:53:11.061Z,87.70
2022-09-23T06:54:11.126Z,87.70
2022-09-23T06:55:11.019Z,87.49
2022-09-23T06:56:10.992Z,87.38
2022-09-23T06:57:11.042Z,87.08
2022-09-23T06:58:10.979Z,86.83
2022-09-23T06:59:10.988Z,86.63
2022-09-23T07:00:10.989Z,86.42
2022-09-23T07:01:11.048Z,86.32
2022-09-23T07:02:11.263Z,86.22
2022-09-23T07:03:10.939Z,86.18
2022-09-23T07:04:10.915Z,86.18
2022-09-23T07:05:10.895Z,85.87
2022-09-23T07:06:10.934Z,85.66
2022-09-23T07:07:10.876Z,85.42
2022-09-23T07:08:10.852Z,85.22
2022-09-23T07:09:10.831Z,85.01
2022-09-23T07:10:10.814Z,84.80
2022-09-23T07:11:10.794Z,84.70
2022-09-23T07:12:10.818Z,84.60
2022-09-23T07:13:15.536Z,84.77
2022-09-23T07:14:11.773Z,84.56
2022-09-23T07:15:11.092Z,84.46
2022-09-23T07:16:10.870Z,84.01
2022-09-23T07:17:10.734Z,84.11
2022-09-23T07:18:10.768Z,84.11
2022-09-23T07:19:10.729Z,83.81
2022-09-23T07:20:10.682Z,84.01
2022-09-23T07:21:10.694Z,83.97
2022-09-23T07:22:10.679Z,83.87
2022-09-23T07:23:10.655Z,83.46
2022-09-23T07:24:10.650Z,83.36
2022-09-23T07:25:10.675Z,83.25
2022-09-23T07:26:10.677Z,83.15
2022-09-23T07:27:10.647Z,82.91
2022-09-23T07:28:10.577Z,82.70
2022-09-23T07:29:10.614Z,82.70
2022-09-23T07:30:19.571Z,82.60
2022-09-23T07:31:11.617Z,82.20
2022-09-23T07:32:14.005Z,81.99
2022-09-23T07:33:26.319Z,81.48
2022-09-23T07:34:11.819Z,81.27
2022-09-23T07:35:10.620Z,81.13
2022-09-23T07:36:10.495Z,81.13
2022-09-23T07:37:10.497Z,81.03
2022-09-23T07:38:10.448Z,81.03
2022-09-23T07:39:10.474Z,81.03
2022-09-23T07:40:10.494Z,80.99
2022-09-23T07:41:10.476Z,81.10
2022-09-23T07:42:10.438Z,81.30
2022-09-23T07:43:10.416Z,81.20
2022-09-23T07:44:10.477Z,80.99
2022-09-23T07:45:10.412Z,80.58
2022-09-23T07:46:10.460Z,80.38
2022-09-23T07:47:10.387Z,80.34
2022-09-23T07:48:10.437Z,80.04
2022-09-23T07:49:10.323Z,80.14
2022-09-23T07:50:10.314Z,79.73
2022-09-23T07:51:10.328Z,79.32
2022-09-23T07:52:10.295Z,79.49
2022-09-23T07:53:10.316Z,79.39
2022-09-23T07:54:10.417Z,79.28
2022-09-23T07:55:10.383Z,78.47
2022-09-23T07:56:10.245Z,78.53
2022-09-23T07:57:10.345Z,78.33
2022-09-23T07:58:10.256Z,78.43
2022-09-23T07:59:10.235Z,78.12
2022-09-23T08:00:10.212Z,78.23
2022-09-23T08:01:10.247Z,78.12
2022-09-23T08:02:10.289Z,77.62
2022-09-23T08:03:10.222Z,77.82
2022-09-23T08:04:10.168Z,77.82
2022-09-23T08:05:10.113Z,77.82
2022-09-23T08:06:10.128Z,78.02
2022-09-23T08:07:10.156Z,78.43
2022-09-23T08:08:10.094Z,78.19
2022-09-23T08:09:10.133Z,78.19
2022-09-23T08:10:10.126Z,78.30
2022-09-23T08:11:10.066Z,77.48
2022-09-23T08:12:15.190Z,77.68
2022-09-23T08:13:11.076Z,76.87
2022-09-23T08:14:10.012Z,80.09
2022-09-23T08:15:10.142Z,76.79
2022-09-23T08:16:10.211Z,75.98
2022-09-23T08:17:09.988Z,75.47
2022-09-23T08:18:09.973Z,75.16
2022-09-23T08:19:09.999Z,75.88
2022-09-23T08:20:10.774Z,76.45
2022-09-23T08:21:09.956Z,76.65
2022-09-23T08:22:09.918Z,75.64
2022-09-23T08:23:09.911Z,75.70
2022-09-23T08:24:09.924Z,75.30
2022-09-23T08:25:10.349Z,75.02
2022-09-23T08:26:18.070Z,75.64
2022-09-23T08:27:10.839Z,74.89
2022-09-23T08:28:09.847Z,75.23
2022-09-23T08:29:09.876Z,74.62
2022-09-23T08:30:09.890Z,74.32
2022-09-23T08:31:09.890Z,74.62
2022-09-23T08:32:09.807Z,74.79
2022-09-23T08:33:09.831Z,73.97
2022-09-23T08:34:09.825Z,73.67
2022-09-23T08:35:09.852Z,73.87
2022-09-23T08:36:09.781Z,73.87
2022-09-23T08:37:09.695Z,73.97
2022-09-23T08:38:09.710Z,73.97
2022-09-23T08:39:09.761Z,73.47
2022-09-23T08:40:09.749Z,73.67
2022-09-23T08:41:09.858Z,73.77
2022-09-23T08:42:09.668Z,73.57
2022-09-23T08:43:09.653Z,73.87
2022-09-23T08:44:09.660Z,74.08
2022-09-23T08:45:09.662Z,73.94
2022-09-23T08:46:09.683Z,73.94
2022-09-23T08:47:09.593Z,74.04
2022-09-23T08:48:12.983Z,73.84
2022-09-23T08:49:09.588Z,74.24
2022-09-23T08:50:09.539Z,74.04
2022-09-23T08:51:09.611Z,73.74
2022-09-23T08:52:09.524Z,73.74
2022-09-23T08:53:09.512Z,72.92
2022-09-23T08:54:09.537Z,72.38
2022-09-23T08:55:10.614Z,72.58
2022-09-23T08:56:09.473Z,71.87
2022-09-23T08:57:09.507Z,72.08
2022-09-23T08:58:26.227Z,72.17
2022-09-23T08:59:10.429Z,72.08
2022-09-23T09:00:09.530Z,71.47
2022-09-23T09:01:09.532Z,71.47
2022-09-23T09:02:09.399Z,71.77
2022-09-23T09:03:09.367Z,71.84
2022-09-23T09:04:12.506Z,71.43
2022-09-23T09:05:09.340Z,71.43
2022-09-23T09:06:09.354Z,70.92
2022-09-23T09:07:34.751Z,71.64
2022-09-23T09:08:10.325Z,71.12
2022-09-23T09:09:09.318Z,71.53
2022-09-23T09:10:09.338Z,71.53
2022-09-23T09:11:09.293Z,71.12
2022-09-23T09:12:09.256Z,70.82
2022-09-23T09:13:09.250Z,70.52
2022-09-23T09:14:09.242Z,70.28
2022-09-23T09:15:09.508Z,69.78
2022-09-23T09:16:09.251Z,69.78
2022-09-23T09:17:09.182Z,70.18
2022-09-23T09:18:09.196Z,69.87
2022-09-23T09:19:09.158Z,69.87
2022-09-23T09:20:09.149Z,70.15
2022-09-23T09:21:09.139Z,70.04
2022-09-23T09:22:09.114Z,69.74
2022-09-23T09:23:09.212Z,69.23
2022-09-23T09:24:10.206Z,69.13
2022-09-23T09:25:09.089Z,69.43
2022-09-23T09:26:09.091Z,69.30
2022-09-23T09:27:09.078Z,69.60
2022-09-23T09:28:09.037Z,69.30
2022-09-23T09:29:23.688Z,69.00
2022-09-23T09:30:10.084Z,68.59
2022-09-23T09:31:09.058Z,68.70
2022-09-23T09:32:08.989Z,68.19
2022-09-23T09:33:08.992Z,68.26
2022-09-23T09:34:08.995Z,67.85
2022-09-23T09:35:08.982Z,67.44
2022-09-23T09:36:09.265Z,67.55
2022-09-23T09:37:08.939Z,67.55
2022-09-23T09:38:08.899Z,67.85
2022-09-23T09:39:08.977Z,67.65
2022-09-23T09:40:08.942Z,67.82
2022-09-23T09:41:08.879Z,67.11
2022-09-23T09:42:08.880Z,67.00
2022-09-23T09:43:08.855Z,67.00
2022-09-23T09:44:08.861Z,66.50
2022-09-23T09:45:08.907Z,66.40
2022-09-23T09:46:08.817Z,66.50
2022-09-23T09:47:08.802Z,66.60
2022-09-23T09:48:08.796Z,65.99
2022-09-23T09:49:08.798Z,66.09
2022-09-23T09:50:08.747Z,65.79
2022-09-23T09:51:08.762Z,65.69
2022-09-23T09:52:08.736Z,65.18
2022-09-23T09:53:08.654Z,65.28
2022-09-23T09:54:08.653Z,65.39
2022-09-23T09:55:08.668Z,65.56
2022-09-23T09:56:08.682Z,65.48
2022-09-23T09:57:08.610Z,64.88
2022-09-23T09:58:08.610Z,64.37
2022-09-23T09:59:08.618Z,63.66
2022-09-23T10:00:08.738Z,63.66
2022-09-23T10:01:08.635Z,63.96
2022-09-23T10:02:08.609Z,63.56
2022-09-23T10:03:08.558Z,63.35
2022-09-23T10:04:08.630Z,63.46
2022-09-23T10:05:08.607Z,63.32
2022-09-23T10:06:08.787Z,62.41
2022-09-23T10:07:08.507Z,61.40
2022-09-23T10:08:08.464Z,61.00
2022-09-23T10:09:08.467Z,60.26
2022-09-23T10:10:22.258Z,60.06
2022-09-23T10:11:09.427Z,60.97
2022-09-23T10:12:08.411Z,60.26
2022-09-23T10:13:08.413Z,59.14
2022-09-23T10:14:08.455Z,58.71
2022-09-23T10:15:08.384Z,58.11
2022-09-23T10:16:08.381Z,57.80
2022-09-23T10:17:08.352Z,57.62
2022-09-23T10:18:08.421Z,58.34
2022-09-23T10:19:08.331Z,58.31
2022-09-23T10:20:08.330Z,57.90
2022-09-23T10:21:08.313Z,57.29
2022-09-23T10:22:08.288Z,57.50
2022-09-23T10:23:08.293Z,58.00
2022-09-23T10:24:08.307Z,57.78
2022-09-23T10:25:08.273Z,57.78
2022-09-23T10:26:08.267Z,57.37
2022-09-23T10:27:08.247Z,57.65
2022-09-23T10:28:08.371Z,56.94
2022-09-23T10:29:08.244Z,57.85
2022-09-23T10:30:08.238Z,57.95
2022-09-23T10:31:08.537Z,57.85
2022-09-23T10:32:08.207Z,58.28
2022-09-23T10:33:08.173Z,57.98
2022-09-23T10:34:08.132Z,57.17
2022-09-23T10:35:08.187Z,58.07
2022-09-23T10:36:08.104Z,58.38
2022-09-23T10:37:08.087Z,58.38
2022-09-23T10:38:08.108Z,58.15
2022-09-23T10:39:08.199Z,57.85
2022-09-23T10:40:08.112Z,57.75
2022-09-23T10:42:09.120Z,58.15
2022-09-23T10:43:08.064Z,57.14
2022-09-23T10:44:08.103Z,56.81
2022-09-23T10:45:08.007Z,56.71
2022-09-23T10:46:08.110Z,56.40
2022-09-23T10:47:07.963Z,56.20
2022-09-23T10:48:07.958Z,54.89
2022-09-23T10:49:07.946Z,54.71
2022-09-23T10:50:07.942Z,55.40
2022-09-23T10:51:07.937Z,55.49
2022-09-23T10:52:07.942Z,54.99
2022-09-23T10:53:07.895Z,55.80
2022-09-23T10:54:07.964Z,55.40
2022-09-23T10:55:07.938Z,54.25
2022-09-23T10:56:07.889Z,53.96
2022-09-23T10:57:07.887Z,54.86
2022-09-23T10:58:07.843Z,55.07
2022-09-23T10:59:07.809Z,55.27
2022-09-23T11:00:07.845Z,55.57
2022-09-23T11:01:14.868Z,55.47
2022-09-23T11:02:07.789Z,54.36
2022-09-23T11:03:07.775Z,54.05
2022-09-23T11:04:08.027Z,54.36
2022-09-23T11:05:07.917Z,54.99
2022-09-23T11:06:07.763Z,55.49
2022-09-23T11:07:07.712Z,55.67
2022-09-23T11:08:07.718Z,54.76
2022-09-23T11:09:07.701Z,54.05
2022-09-23T11:10:18.470Z,53.25
2022-09-23T11:11:08.652Z,52.94
2022-09-23T11:12:07.649Z,53.34
2022-09-23T11:13:07.628Z,53.78
2022-09-23T11:14:07.928Z,53.17
2022-09-23T11:15:07.632Z,53.27
2022-09-23T11:16:07.625Z,53.88
2022-09-23T11:17:07.745Z,53.88
2022-09-23T11:18:07.587Z,52.84
2022-09-23T11:19:07.588Z,53.25
2022-09-23T11:20:07.562Z,53.34
2022-09-23T11:21:07.525Z,52.84
2022-09-23T11:22:07.527Z,52.64
2022-09-23T11:23:07.509Z,52.74
2022-09-23T11:24:07.574Z,53.05
2022-09-23T11:25:07.495Z,53.34
2022-09-23T11:26:07.472Z,53.14
2022-09-23T11:27:07.470Z,52.23
2022-09-23T11:28:07.439Z,53.25
2022-09-23T11:29:07.438Z,52.34
2022-09-23T11:30:07.440Z,52.23
2022-09-23T11:31:07.455Z,52.94
2022-09-23T11:32:07.417Z,53.34
2022-09-23T11:33:07.473Z,53.63
2022-09-23T11:34:07.481Z,54.53
2022-09-23T11:35:07.390Z,55.04
2022-09-23T11:36:07.343Z,53.63
2022-09-23T11:37:07.334Z,52.03
2022-09-23T11:38:07.316Z,52.54
2022-09-23T11:39:07.322Z,52.31
2022-09-23T11:40:07.375Z,51.32
2022-09-23T11:41:07.421Z,51.03
2022-09-23T11:42:07.314Z,50.72
2022-09-23T11:43:07.934Z,50.92
2022-09-23T11:44:07.330Z,50.92
2022-09-23T11:45:07.295Z,51.35
2022-09-23T11:46:07.308Z,50.74
2022-09-23T11:47:07.215Z,51.65
2022-09-23T11:48:07.237Z,52.16
2022-09-23T11:49:07.183Z,52.67
2022-09-23T11:50:07.206Z,52.46
2022-09-23T11:51:07.152Z,52.56
2022-09-23T11:52:07.135Z,51.96
2022-09-23T11:53:07.136Z,51.86
2022-09-23T11:54:07.405Z,52.56
2022-09-23T11:55:17.970Z,52.56
2022-09-23T11:56:08.098Z,52.56
2022-09-23T11:57:07.204Z,53.25
2022-09-23T11:58:16.116Z,52.34
2022-09-23T11:59:08.334Z,51.53
2022-09-23T12:00:07.047Z,50.44
2022-09-23T12:01:07.576Z,51.05
2022-09-23T12:02:17.442Z,50.95
2022-09-23T12:03:08.209Z,51.43
2022-09-23T12:04:16.758Z,51.32
2022-09-23T12:05:08.105Z,51.53
2022-09-23T12:06:06.966Z,51.03
2022-09-23T12:07:06.940Z,52.03
2022-09-23T12:08:06.946Z,50.62
2022-09-23T12:09:07.611Z,50.72
2022-09-23T12:10:06.926Z,51.61
2022-09-23T12:11:06.925Z,52.01
2022-09-23T12:12:07.266Z,52.51
2022-09-23T12:13:07.168Z,52.41
2022-09-23T12:14:07.052Z,51.81
2022-09-23T12:15:06.835Z,51.61
2022-09-23T12:16:06.916Z,51.81
2022-09-23T12:17:07.831Z,51.40
2022-09-23T12:18:06.817Z,51.61
2022-09-23T12:19:06.846Z,51.78
2022-09-23T12:20:06.795Z,52.19
2022-09-23T12:21:06.805Z,51.18
2022-09-23T12:22:06.777Z,50.49
2022-09-23T12:23:06.745Z,51.61
2022-09-23T12:24:06.873Z,51.30
2022-09-23T12:25:06.739Z,51.38
2022-09-23T12:26:06.757Z,50.98
2022-09-23T12:27:06.691Z,50.47
2022-09-23T12:28:07.009Z,50.87
2022-09-23T12:29:06.668Z,49.18
2022-09-23T12:30:06.659Z,49.99
2022-09-23T12:31:06.705Z,49.79
2022-09-23T12:32:06.625Z,49.18
2022-09-23T12:33:06.618Z,49.38
2022-09-23T12:34:06.630Z,49.58
2022-09-23T12:35:06.625Z,50.29
2022-09-23T12:36:07.028Z,50.70
2022-09-23T12:37:06.564Z,49.99
2022-09-23T12:38:06.547Z,50.49
2022-09-23T12:39:06.578Z,50.70
2022-09-23T12:40:06.537Z,50.49
2022-09-23T12:41:06.516Z,50.49
2022-09-23T12:42:06.500Z,50.49
2022-09-23T12:43:06.479Z,51.00
2022-09-23T12:44:06.652Z,50.29
2022-09-23T12:45:06.458Z,50.49
2022-09-23T12:46:06.505Z,50.70
2022-09-23T12:47:06.435Z,50.90
2022-09-23T12:48:06.422Z,51.12
2022-09-23T12:49:06.407Z,50.72
2022-09-23T12:50:06.394Z,50.70
2022-09-23T12:51:06.390Z,50.59
2022-09-23T12:52:06.365Z,51.10
2022-09-23T12:53:06.367Z,51.40
2022-09-23T12:54:06.378Z,51.71